createdAt,value
2019-05-19T00:00:58.947Z,7.95
2019-05-19T00:03:31.963Z,8.55
2019-05-19T00:06:04.353Z,12.80
2019-05-19T00:08:30.845Z,12.07
2019-05-19T00:11:17.859Z,12.47
2019-05-19T00:13:44.321Z,11.38
2019-05-19T00:16:17.096Z,9.83
2019-05-19T00:18:43.331Z,10.13
2019-05-19T00:21:09.804Z,8.35
2019-05-19T00:23:43.203Z,9.95
2019-05-19T00:26:09.600Z,8.28
2019-05-19T00:28:42.525Z,9.15
2019-05-19T00:31:15.961Z,9.50
2019-05-19T00:33:42.198Z,8.70
2019-05-19T00:36:15.073Z,8.43
2019-05-19T00:38:48.321Z,9.40
2019-05-19T00:41:21.562Z,7.72
2019-05-19T00:43:54.600Z,9.40
2019-05-19T00:46:27.324Z,9.55
2019-05-19T00:48:53.805Z,8.33
2019-05-19T00:51:27.160Z,9.50
2019-05-19T00:53:53.622Z,9.13
2019-05-19T00:56:27.358Z,10.23
2019-05-19T00:59:01.668Z,8.73
2019-05-19T01:01:34.915Z,8.83
2019-05-19T01:04:08.111Z,9.43
2019-05-19T01:06:34.571Z,10.72
2019-05-19T01:09:00.987Z,10.90
2019-05-19T01:11:34.343Z,9.60
2019-05-19T01:14:07.714Z,10.13
2019-05-19T01:16:33.971Z,10.95
2019-05-19T01:19:06.745Z,9.30
2019-05-19T01:21:33.489Z,9.68
2019-05-19T01:23:59.837Z,11.65
2019-05-19T01:26:32.637Z,11.18
2019-05-19T01:28:58.919Z,11.45
2019-05-19T01:31:25.203Z,9.65
2019-05-19T01:33:58.754Z,10.30
2019-05-19T01:36:31.619Z,10.88
2019-05-19T01:39:04.709Z,12.25
2019-05-19T01:41:31.082Z,12.40
2019-05-19T01:44:03.815Z,10.53
2019-05-19T01:46:30.176Z,10.65
2019-05-19T01:48:56.631Z,12.23
2019-05-19T01:51:29.438Z,8.50
2019-05-19T01:53:55.797Z,10.58
2019-05-19T01:56:29.032Z,10.88
2019-05-19T01:58:55.363Z,11.53
2019-05-19T02:01:21.639Z,11.73
2019-05-19T02:03:55.204Z,10.75
2019-05-19T02:06:21.677Z,9.43
2019-05-19T02:08:48.022Z,10.15
2019-05-19T02:11:21.408Z,9.43
2019-05-19T02:13:54.792Z,9.48
2019-05-19T02:16:21.246Z,8.63
2019-05-19T02:18:53.980Z,9.68
2019-05-19T02:21:27.350Z,10.35
2019-05-19T02:23:53.630Z,8.15
2019-05-19T02:26:26.756Z,7.40
2019-05-19T02:28:53.218Z,10.80
2019-05-19T02:31:19.565Z,8.38
2019-05-19T02:33:52.348Z,8.08
2019-05-19T02:36:18.707Z,10.15
2019-05-19T02:38:52.374Z,11.55
2019-05-19T02:41:27.858Z,12.43
2019-05-19T02:43:55.806Z,9.43
2019-05-19T02:46:23.754Z,9.63
2019-05-19T02:48:57.676Z,9.37
2019-05-19T02:51:26.738Z,9.05
2019-05-19T02:54:14.528Z,10.60
2019-05-19T02:56:43.598Z,10.10
2019-05-19T02:59:16.592Z,10.48
2019-05-19T03:01:56.480Z,11.05
2019-05-19T03:04:29.439Z,10.68
2019-05-19T03:07:02.697Z,10.05
2019-05-19T03:09:29.066Z,10.18
2019-05-19T03:12:15.056Z,9.95
2019-05-19T03:14:41.305Z,9.98
2019-05-19T03:17:07.550Z,11.38
2019-05-19T03:19:40.343Z,9.95
2019-05-19T03:22:06.585Z,10.03
2019-05-19T03:24:39.590Z,11.70
2019-05-19T03:27:05.949Z,10.43
2019-05-19T03:29:40.699Z,10.03
2019-05-19T03:32:12.487Z,11.45
2019-05-19T03:34:37.054Z,9.73
2019-05-19T03:37:10.077Z,11.20
2019-05-19T03:39:36.545Z,10.43
2019-05-19T03:42:03.013Z,9.88
2019-05-19T03:44:36.113Z,12.80
2019-05-19T03:47:02.580Z,10.15
2019-05-19T03:49:29.262Z,9.65
2019-05-19T03:52:02.457Z,10.98
2019-05-19T03:54:28.813Z,10.63
2019-05-19T03:57:01.860Z,10.38
2019-05-19T03:59:34.533Z,8.63
2019-05-19T04:02:00.985Z,9.23
2019-05-19T04:04:27.350Z,8.80
2019-05-19T04:06:59.868Z,10.08
2019-05-19T04:09:26.221Z,9.60
2019-05-19T04:11:59.223Z,13.70
2019-05-19T04:14:32.521Z,9.20
2019-05-19T04:16:58.874Z,11.35
2019-05-19T04:19:31.662Z,12.58
2019-05-19T04:21:58.032Z,9.70
2019-05-19T04:24:24.369Z,10.85
2019-05-19T04:26:57.164Z,10.40
2019-05-19T04:29:30.357Z,10.95
2019-05-19T04:31:56.622Z,10.60
2019-05-19T04:34:22.976Z,8.80
2019-05-19T04:36:55.874Z,8.05
2019-05-19T04:42:10.752Z,9.75
2019-05-19T04:44:43.992Z,11.65
2019-05-19T04:47:10.458Z,11.70
2019-05-19T04:49:49.607Z,10.65
2019-05-19T04:52:15.968Z,14.80
2019-05-19T04:54:42.215Z,12.07
2019-05-19T04:57:15.392Z,10.00
2019-05-19T04:59:48.375Z,11.50
2019-05-19T05:02:21.406Z,12.00
2019-05-19T05:04:47.677Z,9.83
2019-05-19T05:07:14.037Z,10.72
2019-05-19T05:09:46.882Z,9.70
2019-05-19T05:12:13.344Z,10.72
2019-05-19T05:14:39.725Z,10.72
2019-05-19T05:17:12.416Z,9.18
2019-05-19T05:19:38.662Z,7.42
2019-05-19T05:22:21.836Z,7.40
2019-05-19T05:24:39.534Z,5.85
2019-05-19T05:27:05.812Z,5.62
2019-05-19T05:29:38.915Z,5.60
2019-05-19T05:32:05.268Z,6.97
2019-05-19T05:34:31.831Z,6.12
2019-05-19T05:37:05.175Z,6.80
2019-05-19T05:39:31.530Z,4.20
2019-05-19T05:42:04.657Z,3.90
2019-05-19T05:44:37.964Z,3.92
2019-05-19T05:47:04.323Z,3.30
2019-05-19T05:49:37.514Z,3.00
2019-05-19T05:52:10.081Z,3.05
2019-05-19T05:54:36.441Z,3.50
2019-05-19T05:57:02.904Z,2.87
2019-05-19T05:59:35.834Z,3.00
2019-05-19T06:02:02.294Z,2.67
2019-05-19T06:04:28.742Z,2.75
2019-05-19T06:07:01.857Z,2.47
2019-05-19T06:09:28.256Z,2.92
2019-05-19T06:12:01.077Z,2.50
2019-05-19T06:14:27.336Z,2.30
2019-05-19T06:17:07.236Z,2.05
2019-05-19T06:19:33.601Z,2.45
2019-05-19T06:22:06.450Z,3.22
2019-05-19T06:24:32.843Z,3.12
2019-05-19T06:27:05.928Z,2.85
2019-05-19T06:29:39.267Z,2.10
2019-05-19T06:32:07.520Z,1.50
2019-05-19T06:34:40.478Z,2.10
2019-05-19T06:37:06.835Z,2.40
2019-05-19T06:39:39.789Z,2.10
2019-05-19T06:42:13.014Z,2.15
2019-05-19T06:44:52.447Z,1.62
2019-05-19T06:47:18.816Z,2.40
2019-05-19T06:49:45.245Z,1.50
2019-05-19T06:52:18.379Z,1.92
2019-05-19T06:54:44.870Z,2.98
2019-05-19T06:57:17.683Z,1.50
2019-05-19T06:59:44.074Z,2.62
2019-05-19T07:02:10.545Z,2.10
2019-05-19T07:04:43.892Z,2.10
2019-05-19T07:07:16.961Z,3.05
2019-05-19T07:09:57.417Z,4.33
2019-05-19T07:12:11.497Z,2.33
2019-05-19T07:14:44.310Z,1.70
2019-05-19T07:17:10.681Z,1.47
2019-05-19T07:19:36.941Z,2.55
2019-05-19T07:22:09.781Z,3.90
2019-05-19T07:24:36.041Z,3.10
2019-05-19T07:27:02.520Z,2.72
2019-05-19T07:29:36.174Z,4.28
2019-05-19T07:32:02.778Z,4.40
2019-05-19T07:34:35.780Z,4.03
2019-05-19T07:37:02.310Z,3.80
2019-05-19T07:39:35.283Z,3.55
2019-05-19T07:42:08.564Z,3.40
2019-05-19T07:44:47.757Z,3.45
2019-05-19T07:47:14.154Z,5.05
2019-05-19T07:49:40.628Z,5.22
2019-05-19T07:52:13.392Z,6.85
2019-05-19T07:54:39.734Z,4.58
2019-05-19T07:57:12.578Z,6.22
2019-05-19T07:59:38.980Z,6.35
2019-05-19T08:02:11.904Z,8.38
2019-05-19T08:04:38.277Z,6.50
2019-05-19T08:07:04.631Z,6.95
2019-05-19T08:09:37.356Z,5.97
2019-05-19T08:12:10.796Z,6.22
2019-05-19T08:14:43.992Z,6.85
2019-05-19T08:17:10.468Z,6.08
2019-05-19T08:19:51.464Z,6.45
2019-05-19T08:22:17.914Z,8.60
2019-05-19T08:24:44.556Z,7.17
2019-05-19T08:27:17.873Z,8.13
2019-05-19T08:29:51.001Z,9.18
2019-05-19T08:32:17.445Z,7.40
2019-05-19T08:34:50.194Z,6.10
2019-05-19T08:37:23.419Z,6.47
2019-05-19T08:39:49.844Z,5.87
2019-05-19T08:42:29.805Z,4.42
2019-05-19T08:45:05.387Z,5.92
2019-05-19T08:47:38.227Z,4.70
2019-05-19T08:50:05.589Z,5.70
2019-05-19T08:52:38.316Z,4.53
2019-05-19T08:55:05.398Z,5.55
2019-05-19T08:57:31.728Z,4.83
2019-05-19T09:00:04.211Z,4.53
2019-05-19T09:02:30.606Z,4.15
2019-05-19T09:05:03.506Z,4.78
2019-05-19T09:07:29.819Z,5.45
2019-05-19T09:10:02.712Z,5.80
2019-05-19T09:12:36.168Z,6.80
2019-05-19T09:15:10.549Z,4.22
2019-05-19T09:17:37.588Z,4.08
2019-05-19T09:20:16.579Z,4.42
2019-05-19T09:22:42.843Z,4.25
2019-05-19T09:25:09.468Z,3.47
2019-05-19T09:27:42.015Z,4.58
2019-05-19T09:30:09.292Z,4.92
2019-05-19T09:32:35.651Z,6.05
2019-05-19T09:35:09.526Z,5.03
2019-05-19T09:37:35.879Z,4.40
2019-05-19T09:40:13.125Z,4.37
2019-05-19T09:42:46.594Z,4.28
2019-05-19T09:45:26.682Z,4.90
2019-05-19T09:47:52.932Z,4.37
2019-05-19T09:50:25.875Z,4.40
2019-05-19T09:52:52.235Z,4.00
2019-05-19T09:55:31.264Z,5.25
2019-05-19T09:58:04.348Z,3.95
2019-05-19T10:00:30.820Z,5.00
2019-05-19T10:03:03.485Z,3.80
2019-05-19T10:05:29.869Z,5.83
2019-05-19T10:08:02.672Z,3.87
2019-05-19T10:10:59.499Z,4.62
2019-05-19T10:13:25.701Z,6.10
2019-05-19T10:15:58.515Z,4.33
2019-05-19T10:18:24.732Z,4.47
2019-05-19T10:20:58.141Z,4.83
2019-05-19T10:23:31.570Z,3.60
2019-05-19T10:26:05.108Z,6.87
2019-05-19T10:28:38.418Z,4.37
2019-05-19T10:31:18.798Z,4.30
2019-05-19T10:33:45.167Z,3.47
2019-05-19T10:36:18.164Z,3.55
2019-05-19T10:38:44.426Z,4.72
2019-05-19T10:41:17.380Z,4.72
2019-05-19T10:44:06.063Z,5.37
2019-05-19T10:46:39.366Z,4.50
2019-05-19T10:49:05.820Z,3.72
2019-05-19T10:51:32.272Z,5.08
2019-05-19T10:54:05.001Z,4.40
2019-05-19T10:56:31.358Z,4.75
2019-05-19T10:59:04.116Z,4.47
2019-05-19T11:01:37.465Z,4.12
2019-05-19T11:04:10.500Z,4.22
2019-05-19T11:06:36.846Z,3.20
2019-05-19T11:09:13.027Z,2.75
2019-05-19T11:11:39.358Z,2.85
2019-05-19T11:14:12.363Z,2.00
2019-05-19T11:16:45.731Z,3.10
2019-05-19T11:19:11.984Z,3.67
2019-05-19T11:21:52.001Z,3.40
2019-05-19T11:24:19.218Z,2.50
2019-05-19T11:26:52.244Z,2.33
2019-05-19T11:29:25.100Z,2.42
2019-05-19T11:31:51.385Z,2.80
2019-05-19T11:34:24.315Z,2.15
2019-05-19T11:36:57.924Z,3.65
2019-05-19T11:39:30.834Z,2.17
2019-05-19T11:41:57.303Z,1.95
2019-05-19T11:44:37.362Z,2.05
2019-05-19T11:47:09.824Z,3.10
2019-05-19T11:49:44.260Z,1.77
2019-05-19T11:52:10.774Z,2.17
2019-05-19T11:54:43.635Z,2.25
2019-05-19T11:57:16.976Z,2.33
2019-05-19T11:59:49.387Z,1.70
2019-05-19T12:02:15.664Z,2.90
2019-05-19T12:04:48.676Z,1.95
2019-05-19T12:07:15.341Z,2.22
2019-05-19T12:09:48.864Z,1.60
2019-05-19T12:12:23.968Z,2.25
2019-05-19T12:14:50.328Z,2.27
2019-05-19T12:17:19.350Z,1.70
2019-05-19T12:19:52.636Z,1.70
2019-05-19T12:22:27.447Z,1.77
2019-05-19T12:24:53.714Z,2.52
2019-05-19T12:27:26.978Z,2.00
2019-05-19T12:29:53.249Z,2.00
2019-05-19T12:32:26.273Z,1.70
2019-05-19T12:34:52.614Z,1.60
2019-05-19T12:37:18.993Z,2.08
2019-05-19T12:39:52.325Z,1.80
2019-05-19T12:42:18.976Z,2.87
2019-05-19T12:44:59.930Z,1.92
2019-05-19T12:47:39.957Z,1.45
2019-05-19T12:50:15.241Z,1.50
2019-05-19T12:52:48.306Z,1.70
2019-05-19T12:55:14.774Z,1.70
2019-05-19T12:57:48.198Z,1.90
2019-05-19T13:00:15.445Z,1.45
2019-05-19T13:02:48.721Z,1.50
2019-05-19T13:05:15.196Z,1.55
2019-05-19T13:07:47.969Z,1.22
2019-05-19T13:10:40.593Z,1.47
2019-05-19T13:13:20.604Z,1.65
2019-05-19T13:15:53.952Z,1.40
2019-05-19T13:18:27.027Z,1.67
2019-05-19T13:20:53.282Z,1.57
2019-05-19T13:23:26.367Z,1.57
2019-05-19T13:25:59.632Z,1.55
2019-05-19T13:28:26.254Z,1.40
2019-05-19T13:30:52.630Z,4.25
2019-05-19T13:33:26.279Z,1.27
2019-05-19T13:35:59.269Z,1.45
2019-05-19T13:38:25.845Z,1.57
2019-05-19T13:40:58.702Z,2.55
2019-05-19T13:43:31.710Z,1.57
2019-05-19T13:46:05.095Z,1.82
2019-05-19T13:48:38.348Z,1.00
2019-05-19T13:51:04.787Z,1.37
2019-05-19T13:53:37.750Z,1.40
2019-05-19T13:56:11.008Z,1.32
2019-05-19T13:58:37.554Z,1.32
2019-05-19T14:01:10.243Z,1.75
2019-05-19T14:03:43.494Z,1.12
2019-05-19T14:06:09.883Z,1.60
2019-05-19T14:08:42.888Z,1.20
2019-05-19T14:11:16.202Z,1.80
2019-05-19T14:13:49.490Z,1.55
2019-05-19T14:16:22.530Z,1.30
2019-05-19T14:19:01.950Z,1.85
2019-05-19T14:21:55.248Z,1.32
2019-05-19T14:24:34.632Z,1.22
2019-05-19T14:27:07.684Z,8.70
2019-05-19T14:29:40.757Z,10.15
2019-05-19T14:32:07.020Z,6.95
2019-05-19T14:34:39.680Z,4.53
2019-05-19T14:37:05.933Z,3.30
2019-05-19T14:39:38.872Z,1.95
2019-05-19T14:42:06.987Z,1.47
2019-05-19T14:44:40.127Z,1.72
2019-05-19T14:47:06.564Z,2.50
2019-05-19T14:49:39.394Z,2.20
2019-05-19T14:52:12.382Z,1.72
2019-05-19T14:54:38.760Z,1.05
2019-05-19T14:57:11.774Z,1.70
2019-05-19T14:59:45.014Z,1.20
2019-05-19T15:02:11.248Z,1.40
2019-05-19T15:04:44.550Z,1.65
2019-05-19T15:07:17.634Z,1.20
2019-05-19T15:09:53.767Z,1.80
2019-05-19T15:12:31.996Z,1.47
2019-05-19T15:14:58.421Z,2.33
2019-05-19T15:17:37.673Z,3.30
2019-05-19T15:20:07.758Z,2.40
2019-05-19T15:22:47.224Z,2.90
2019-05-19T15:25:19.844Z,3.25
2019-05-19T15:27:59.291Z,1.67
2019-05-19T15:30:21.538Z,1.65
2019-05-19T15:32:47.987Z,1.60
2019-05-19T15:35:21.008Z,1.35
2019-05-19T15:37:47.343Z,1.55
2019-05-19T15:40:13.827Z,1.55
2019-05-19T15:42:46.765Z,3.67
2019-05-19T15:45:13.349Z,1.95
2019-05-19T15:47:46.292Z,3.02
2019-05-19T15:50:38.899Z,16.30
2019-05-19T15:53:18.952Z,12.50
2019-05-19T15:55:45.331Z,6.85
2019-05-19T15:58:18.106Z,6.42
2019-05-19T16:00:44.487Z,3.95
2019-05-19T16:03:17.415Z,6.70
2019-05-19T16:05:43.723Z,4.08
2019-05-19T16:08:16.520Z,2.60
2019-05-19T16:10:43.059Z,2.27
2019-05-19T16:13:15.668Z,2.58
2019-05-19T16:15:49.149Z,3.50
2019-05-19T16:18:22.525Z,1.82
2019-05-19T16:20:49.088Z,2.40
2019-05-19T16:23:20.242Z,2.42
2019-05-19T16:26:00.195Z,1.37
2019-05-19T16:28:30.902Z,1.90
2019-05-19T16:31:01.606Z,1.82
2019-05-19T16:33:27.969Z,2.20
2019-05-19T16:35:54.331Z,2.08
2019-05-19T16:38:27.050Z,1.50
2019-05-19T16:40:53.499Z,1.92
2019-05-19T16:43:19.869Z,3.05
2019-05-19T16:45:53.498Z,1.92
2019-05-19T16:48:19.881Z,1.67
2019-05-19T16:50:53.488Z,2.00
2019-05-19T16:53:26.961Z,2.52
2019-05-19T16:55:53.489Z,2.42
2019-05-19T16:58:26.843Z,2.33
2019-05-19T17:00:53.186Z,2.42
2019-05-19T17:03:26.570Z,3.47
2019-05-19T17:05:59.582Z,2.17
2019-05-19T17:08:26.082Z,2.20
2019-05-19T17:10:59.714Z,2.27
2019-05-19T17:13:25.997Z,1.72
2019-05-19T17:16:05.155Z,1.92
2019-05-19T17:18:35.213Z,4.05
2019-05-19T17:21:08.318Z,3.65
2019-05-19T17:23:41.719Z,4.28
2019-05-19T17:26:08.180Z,3.87
2019-05-19T17:28:34.582Z,3.12
2019-05-19T17:31:07.948Z,3.02
2019-05-19T17:33:34.381Z,1.62
2019-05-19T17:36:07.251Z,2.87
2019-05-19T17:39:21.841Z,2.30
2019-05-19T17:41:48.418Z,2.55
2019-05-19T17:44:17.641Z,3.22
2019-05-19T17:46:51.303Z,2.77
2019-05-19T17:49:18.189Z,1.87
2019-05-19T17:51:51.141Z,2.12
2019-05-19T17:54:24.160Z,1.75
2019-05-19T17:56:51.808Z,2.90
2019-05-19T17:59:24.788Z,2.87
2019-05-19T18:01:51.100Z,4.65
2019-05-19T18:04:24.038Z,3.87
2019-05-19T18:12:42.608Z,3.27
2019-05-19T18:15:15.760Z,5.35
2019-05-19T18:17:48.353Z,3.80
2019-05-19T18:20:23.947Z,2.67
2019-05-19T18:22:49.458Z,3.00
2019-05-19T18:25:24.638Z,3.87
2019-05-19T18:27:58.060Z,3.87
2019-05-19T18:30:24.537Z,2.33
2019-05-19T18:32:57.864Z,2.42
2019-05-19T18:35:31.183Z,2.90
2019-05-19T18:38:04.435Z,2.40
2019-05-19T18:40:30.860Z,2.95
2019-05-19T18:43:04.356Z,2.62
2019-05-19T18:45:30.807Z,2.60
2019-05-19T18:48:03.422Z,2.25
2019-05-19T18:50:29.656Z,3.33
2019-05-19T18:53:02.330Z,2.75
2019-05-19T18:55:35.704Z,3.00
2019-05-19T18:58:02.048Z,1.75
2019-05-19T19:00:34.009Z,2.67
2019-05-19T19:03:06.923Z,1.60
2019-05-19T19:05:33.311Z,6.25
2019-05-19T19:07:59.741Z,10.23
2019-05-19T19:10:33.024Z,9.30
2019-05-19T19:13:13.292Z,7.55
2019-05-19T19:15:52.427Z,8.93
2019-05-19T19:18:25.501Z,5.67
2019-05-19T19:20:51.833Z,3.72
2019-05-19T19:23:24.920Z,4.92
2019-05-19T19:25:51.350Z,5.33
2019-05-19T19:28:24.337Z,3.00
2019-05-19T19:30:57.514Z,3.87
2019-05-19T19:33:24.139Z,3.22
2019-05-19T19:35:56.947Z,5.28
2019-05-19T19:38:23.220Z,5.60
2019-05-19T19:40:49.492Z,5.15
2019-05-19T19:43:22.295Z,5.80
2019-05-19T19:45:55.639Z,4.20
2019-05-19T19:48:31.085Z,5.62
2019-05-19T19:50:57.559Z,5.55
2019-05-19T19:53:30.183Z,3.02
2019-05-19T19:56:03.485Z,2.55
2019-05-19T19:58:29.916Z,2.40
2019-05-19T20:00:56.192Z,5.80
2019-05-19T20:03:29.340Z,7.10
2019-05-19T20:05:55.816Z,7.53
2019-05-19T20:08:28.616Z,6.53
2019-05-19T20:11:01.645Z,7.90
2019-05-19T20:13:34.153Z,6.17
2019-05-19T20:16:13.393Z,7.78
2019-05-19T20:18:39.881Z,7.47
2019-05-19T20:21:06.318Z,6.12
2019-05-19T20:23:39.180Z,5.03
2019-05-19T20:26:12.547Z,4.37
2019-05-19T20:28:38.838Z,5.33
2019-05-19T20:31:11.525Z,5.53
2019-05-19T20:33:37.794Z,4.45
2019-05-19T20:36:10.858Z,5.55
2019-05-19T20:38:37.107Z,5.22
2019-05-19T20:41:10.229Z,4.53
2019-05-19T20:43:36.485Z,3.98
2019-05-19T20:46:09.316Z,3.95
2019-05-19T20:48:42.651Z,4.05
2019-05-19T20:51:09.028Z,4.30
2019-05-19T20:53:41.787Z,5.10
2019-05-19T20:56:08.153Z,4.22
2019-05-19T20:58:40.853Z,2.85
2019-05-19T21:01:13.959Z,2.87
2019-05-19T21:03:40.537Z,3.72
2019-05-19T21:06:07.287Z,2.77
2019-05-19T21:08:40.907Z,2.47
2019-05-19T21:11:07.360Z,4.03
2019-05-19T21:13:40.489Z,6.33
2019-05-19T21:16:13.640Z,5.60
2019-05-19T21:18:53.076Z,9.65
2019-05-19T21:21:25.720Z,13.05
2019-05-19T21:23:52.194Z,14.80
2019-05-19T21:26:24.737Z,12.73
2019-05-19T21:28:51.026Z,12.10
2019-05-19T21:31:24.072Z,9.85
2019-05-19T21:33:57.466Z,5.60
2019-05-19T21:36:23.735Z,3.83
2019-05-19T21:38:50.029Z,4.75
2019-05-19T21:41:22.878Z,7.42
2019-05-19T21:43:49.240Z,4.17
2019-05-19T21:46:21.945Z,4.12
2019-05-19T21:48:48.405Z,3.12
2019-05-19T21:51:21.034Z,4.37
2019-05-19T21:53:53.942Z,1.90
2019-05-19T21:56:20.332Z,1.95
2019-05-19T21:58:46.799Z,1.80
2019-05-19T22:01:23.386Z,1.70
2019-05-19T22:03:48.523Z,2.02
2019-05-19T22:06:15.729Z,1.90
2019-05-19T22:08:48.927Z,1.85
2019-05-19T22:11:15.389Z,1.92
2019-05-19T22:13:48.457Z,1.50
2019-05-19T22:16:28.458Z,4.00
2019-05-19T22:18:54.914Z,1.72
2019-05-19T22:21:28.095Z,2.10
2019-05-19T22:24:00.913Z,2.45
2019-05-19T22:26:27.303Z,2.00
2019-05-19T22:28:53.777Z,4.20
2019-05-19T22:31:36.591Z,3.83
2019-05-19T22:33:55.368Z,3.50
2019-05-19T22:36:28.341Z,2.60
2019-05-19T22:38:54.923Z,3.52
2019-05-19T22:41:27.838Z,4.45
2019-05-19T22:43:54.216Z,2.98
2019-05-19T22:46:20.686Z,2.77
2019-05-19T22:48:53.284Z,2.30
2019-05-19T22:51:22.687Z,2.50
2019-05-19T22:53:54.637Z,4.00
2019-05-19T22:56:21.107Z,3.22
2019-05-19T22:58:47.556Z,3.55
2019-05-19T23:01:20.989Z,4.80
2019-05-19T23:03:47.454Z,5.05
2019-05-19T23:06:13.935Z,3.62
2019-05-19T23:08:47.435Z,3.50
2019-05-19T23:11:13.826Z,3.95
2019-05-19T23:13:47.049Z,2.95
2019-05-19T23:16:26.347Z,3.25
2019-05-19T23:18:52.726Z,3.05
2019-05-19T23:21:25.514Z,2.30
2019-05-19T23:23:51.868Z,3.45
2019-05-19T23:26:24.958Z,2.37
2019-05-19T23:28:58.037Z,2.52
2019-05-19T23:31:24.383Z,2.87
2019-05-19T23:33:57.610Z,4.53
2019-05-19T23:36:30.909Z,3.05
2019-05-19T23:38:57.291Z,3.80
2019-05-19T23:41:23.731Z,3.77
2019-05-19T23:43:56.385Z,3.17
2019-05-19T23:46:22.760Z,4.08
2019-05-19T23:48:49.137Z,6.17
2019-05-19T23:51:22.451Z,5.40
2019-05-19T23:53:48.721Z,5.30
2019-05-19T23:56:15.182Z,8.80
2019-05-19T23:58:48.225Z,10.20
